Time;durP1;ratioP1;P1;durP2;ratioP2;P2;SDS_P1;SDS_P2;PMS_P1;PMS_P2;Temp;Humidity;BMP_temperature;BMP_pressure;BME280_temperature;BME280_humidity;BME280_pressure;Samples;Min_cycle;Max_cycle;Signal;HPM_P1;HPM_P2
2022/03/01 00:00:24;;;;;;;7.80;5.23;;;;;;;-3.81;96.85;102878.16;4973295;28;20049;-82
2022/03/01 00:02:51;;;;;;;6.67;4.57;;;;;;;-3.94;97.24;102870.31;4996784;28;20468;-81
2022/03/01 00:05:17;;;;;;;9.17;5.03;;;;;;;-3.99;97.82;102867.38;4998203;28;20042;-82
2022/03/01 00:07:44;;;;;;;9.00;4.97;;;;;;;-3.95;98.08;102863.38;4999309;28;20050;-82
2022/03/01 00:10:11;;;;;;;10.60;5.30;;;;;;;-4.04;98.05;102873.88;4976859;28;20071;-82
2022/03/01 00:12:37;;;;;;;7.93;4.97;;;;;;;-3.99;97.30;102867.38;4968694;28;20058;-81
2022/03/01 00:15:06;;;;;;;10.53;5.60;;;;;;;-3.83;95.72;102863.34;4982886;28;20038;-82
2022/03/01 00:17:32;;;;;;;10.90;5.10;;;;;;;-3.90;96.35;102862.00;4997419;28;20093;-82
2022/03/01 00:19:59;;;;;;;7.17;4.67;;;;;;;-3.85;96.40;102862.34;4982200;28;20046;-81
2022/03/01 00:22:28;;;;;;;8.57;4.93;;;;;;;-3.89;97.16;102857.72;4994586;28;20409;-82
2022/03/01 00:24:55;;;;;;;7.67;4.57;;;;;;;-4.04;97.26;102867.81;5031871;28;20045;-79
2022/03/01 00:27:21;;;;;;;10.37;6.03;;;;;;;-4.08;97.31;102863.25;4998614;28;20078;-82
2022/03/01 00:29:48;;;;;;;9.33;5.43;;;;;;;-4.00;97.72;102854.38;4994689;28;20099;-82
2022/03/01 00:32:15;;;;;;;10.70;5.53;;;;;;;-4.09;95.97;102861.44;4988496;28;20050;-80
2022/03/01 00:34:41;;;;;;;9.77;5.47;;;;;;;-4.03;96.93;102862.81;4997250;28;20107;-80
2022/03/01 00:37:08;;;;;;;10.73;6.07;;;;;;;-4.02;96.88;102846.53;4977760;28;20042;-80
2022/03/01 00:39:38;;;;;;;10.57;6.43;;;;;;;-4.06;97.04;102852.22;4963308;28;20047;-80
2022/03/01 00:42:04;;;;;;;9.20;6.40;;;;;;;-4.07;95.97;102857.28;4973510;28;20104;-80
2022/03/01 00:44:31;;;;;;;11.67;6.53;;;;;;;-4.09;95.92;102851.13;4978224;28;20042;-80
2022/03/01 00:46:58;;;;;;;9.43;5.40;;;;;;;-4.10;97.04;102846.75;4981445;28;20142;-81
2022/03/01 00:49:25;;;;;;;12.70;7.03;;;;;;;-4.11;95.74;102843.28;4980713;28;20046;-81
2022/03/01 00:51:51;;;;;;;10.43;5.87;;;;;;;-4.16;96.55;102856.59;4983224;28;20382;-80
2022/03/01 00:54:18;;;;;;;9.73;6.17;;;;;;;-4.10;94.58;102852.81;5009948;28;20038;-80
2022/03/01 00:56:45;;;;;;;9.47;6.53;;;;;;;-4.14;94.76;102855.94;4998467;28;20045;-80
2022/03/01 00:59:12;;;;;;;12.30;7.30;;;;;;;-4.17;95.91;102847.06;4998237;28;20608;-80
2022/03/01 01:01:43;;;;;;;11.10;6.53;;;;;;;-4.22;94.80;102851.88;4984688;28;20046;-79
2022/03/01 01:04:10;;;;;;;11.70;6.10;;;;;;;-4.21;94.38;102847.59;5002339;28;20049;-80
2022/03/01 01:06:37;;;;;;;10.60;6.03;;;;;;;-4.21;94.47;102842.44;4984724;28;20042;-80
2022/03/01 01:09:04;;;;;;;10.90;6.93;;;;;;;-4.20;94.55;102841.66;4982122;28;20045;-81
2022/03/01 01:11:30;;;;;;;11.70;7.43;;;;;;;-4.09;93.12;102846.84;4991159;28;20045;-80
2022/03/01 01:13:57;;;;;;;12.20;7.23;;;;;;;-4.30;93.58;102840.09;5000915;28;20508;-80
2022/03/01 01:16:24;;;;;;;10.37;5.80;;;;;;;-4.30;94.23;102834.94;5001348;28;20038;-81
2022/03/01 01:18:51;;;;;;;13.37;6.53;;;;;;;-4.31;94.36;102851.19;4986088;28;20056;-80
2022/03/01 01:21:19;;;;;;;9.90;5.63;;;;;;;-4.31;94.14;102833.13;4980589;28;20133;-80
2022/03/01 01:23:45;;;;;;;12.87;6.80;;;;;;;-4.34;94.99;102838.97;4984758;28;20464;-81
2022/03/01 01:26:16;;;;;;;13.53;7.37;;;;;;;-4.28;95.06;102839.44;5076420;22;20587;-79
2022/03/01 01:28:42;;;;;;;12.73;6.70;;;;;;;-4.30;95.91;102847.81;4994519;28;20129;-78
2022/03/01 01:31:09;;;;;;;10.73;7.20;;;;;;;-4.22;96.22;102835.50;4992248;28;20042;-78
2022/03/01 01:33:36;;;;;;;9.57;6.37;;;;;;;-4.27;96.29;102838.66;5001798;28;20042;-78
2022/03/01 01:36:03;;;;;;;10.57;6.70;;;;;;;-4.26;95.77;102834.38;4980362;28;20048;-78
2022/03/01 01:38:30;;;;;;;10.43;6.30;;;;;;;-4.41;95.60;102834.13;5001637;28;20046;-79
2022/03/01 01:40:56;;;;;;;12.10;7.30;;;;;;;-4.37;95.11;102843.00;4987920;28;20053;-78
2022/03/01 01:43:23;;;;;;;12.53;7.03;;;;;;;-4.42;93.82;102832.34;5011312;28;20057;-78
2022/03/01 01:45:50;;;;;;;13.80;8.13;;;;;;;-4.36;93.00;102822.50;5019733;28;20091;-78
2022/03/01 01:48:17;;;;;;;11.57;7.23;;;;;;;-4.41;92.96;102834.13;5019199;28;20049;-78
2022/03/01 01:50:43;;;;;;;12.03;7.63;;;;;;;-4.53;93.39;102838.38;5020296;28;20527;-79
2022/03/01 01:53:10;;;;;;;12.13;7.30;;;;;;;-4.59;94.32;102841.41;5018622;28;20042;-78
2022/03/01 01:55:37;;;;;;;11.90;7.00;;;;;;;-4.58;94.88;102819.97;4994521;28;20077;-79
2022/03/01 01:58:04;;;;;;;12.30;6.93;;;;;;;-4.59;93.41;102833.66;5004765;28;20031;-78
2022/03/01 02:00:31;;;;;;;12.00;7.20;;;;;;;-4.60;93.87;102820.66;4991310;28;20038;-77
2022/03/01 02:02:58;;;;;;;11.90;7.67;;;;;;;-4.47;94.99;102820.78;4991961;28;20089;-79
2022/03/01 02:05:27;;;;;;;14.50;8.63;;;;;;;-4.55;96.11;102815.03;4988247;28;20047;-78
2022/03/01 02:07:54;;;;;;;11.20;6.70;;;;;;;-4.60;96.87;102818.97;4993473;28;20053;-78
2022/03/01 02:10:21;;;;;;;12.37;7.30;;;;;;;-4.53;97.43;102813.50;5003018;28;20493;-78
2022/03/01 02:12:48;;;;;;;13.97;8.03;;;;;;;-4.62;97.67;102815.38;4994988;28;20464;-78
2022/03/01 02:15:15;;;;;;;12.00;7.53;;;;;;;-4.62;97.72;102819.66;4978858;28;20050;-77
2022/03/01 02:17:42;;;;;;;13.73;8.00;;;;;;;-4.66;98.71;102822.75;5004901;28;20046;-78
2022/03/01 02:20:14;;;;;;;13.87;7.73;;;;;;;-4.72;98.61;102817.13;4995798;28;20101;-79
2022/03/01 02:22:41;;;;;;;12.47;8.07;;;;;;;-4.80;99.73;102816.53;5000376;28;20049;-78
2022/03/01 02:25:08;;;;;;;14.67;7.90;;;;;;;-4.72;98.46;102817.13;4982883;28;20048;-78
2022/03/01 02:27:35;;;;;;;13.70;8.13;;;;;;;-4.76;98.47;102813.44;5011711;28;20064;-78
2022/03/01 02:30:07;;;;;;;12.70;7.93;;;;;;;-4.66;98.29;102812.44;4982322;28;20061;-79
2022/03/01 02:32:34;;;;;;;12.83;7.93;;;;;;;-4.67;97.82;102806.38;5006733;28;20038;-78
2022/03/01 02:35:02;;;;;;;11.63;7.17;;;;;;;-4.74;98.13;102810.97;4995903;28;20060;-78
2022/03/01 02:37:29;;;;;;;11.83;7.40;;;;;;;-4.73;99.02;102811.06;4986668;28;20034;-78
2022/03/01 02:39:55;;;;;;;12.40;6.87;;;;;;;-4.79;99.39;102812.28;4968810;28;20509;-78
2022/03/01 02:42:22;;;;;;;14.90;7.30;;;;;;;-4.88;100.00;102807.34;4996861;28;20053;-79
2022/03/01 02:44:49;;;;;;;12.03;7.30;;;;;;;-4.92;99.97;102807.91;4998462;28;20073;-78
2022/03/01 02:47:16;;;;;;;13.37;7.77;;;;;;;-4.94;100.00;102804.31;4996944;28;20065;-78
2022/03/01 02:49:43;;;;;;;13.40;7.10;;;;;;;-4.94;100.00;102807.78;5014646;28;20444;-78
2022/03/01 02:52:10;;;;;;;15.00;8.33;;;;;;;-4.96;100.00;102799.03;4977987;28;20054;-78
2022/03/01 02:54:36;;;;;;;16.37;7.60;;;;;;;-4.98;100.00;102798.00;4980142;28;20058;-79
2022/03/01 02:57:03;;;;;;;12.20;7.80;;;;;;;-4.94;100.00;102802.63;5016340;28;20044;-78
2022/03/01 02:59:30;;;;;;;12.10;6.93;;;;;;;-4.84;98.49;102794.81;4991521;28;20041;-78
2022/03/01 03:01:57;;;;;;;11.80;7.27;;;;;;;-4.90;99.65;102796.00;4976319;28;20656;-78
2022/03/01 03:04:25;;;;;;;11.60;7.63;;;;;;;-4.86;100.00;102795.47;4995272;28;20050;-78
2022/03/01 03:06:51;;;;;;;10.27;7.47;;;;;;;-4.72;99.69;102794.81;5009876;28;20046;-79
2022/03/01 03:09:18;;;;;;;12.93;7.57;;;;;;;-4.79;98.72;102799.41;4980845;28;20046;-79
2022/03/01 03:11:45;;;;;;;15.63;8.73;;;;;;;-4.89;99.38;102796.13;4998892;28;20045;-78
2022/03/01 03:14:12;;;;;;;14.43;7.80;;;;;;;-4.91;99.17;102792.53;5000605;28;20084;-78
2022/03/01 03:16:41;;;;;;;13.87;8.70;;;;;;;-4.81;98.05;102781.25;5004190;28;20097;-78
2022/03/01 03:19:11;;;;;;;14.00;7.30;;;;;;;-4.79;97.33;102778.75;5007531;28;20045;-78
2022/03/01 03:21:38;;;;;;;12.20;7.77;;;;;;;-4.76;96.07;102777.34;5021536;28;20117;-79
2022/03/01 03:24:06;;;;;;;15.37;8.80;;;;;;;-4.78;96.42;102778.00;4990025;28;20054;-78
2022/03/01 03:26:33;;;;;;;16.37;7.90;;;;;;;-4.65;94.71;102772.97;5001640;28;20185;-78
2022/03/01 03:29:01;;;;;;;14.57;7.90;;;;;;;-4.63;95.31;102774.88;5003948;28;20145;-78
2022/03/01 03:31:28;;;;;;;15.90;8.20;;;;;;;-4.60;94.62;102777.69;5000678;28;20050;-78
2022/03/01 03:33:55;;;;;;;11.37;7.60;;;;;;;-4.51;94.83;102774.00;4986913;28;20065;-78
2022/03/01 03:36:21;;;;;;;14.40;7.83;;;;;;;-4.53;92.88;102781.66;4999743;28;20057;-78
2022/03/01 03:38:49;;;;;;;14.37;8.00;;;;;;;-4.45;92.31;102784.78;4999022;28;20567;-79
2022/03/01 03:41:16;;;;;;;13.93;6.90;;;;;;;-4.54;93.33;102770.44;4973588;28;20049;-78
2022/03/01 03:43:43;;;;;;;17.93;8.47;;;;;;;-4.54;93.36;102769.50;5003098;28;20054;-78
2022/03/01 03:46:09;;;;;;;14.87;7.87;;;;;;;-4.51;92.25;102777.50;5028249;28;20052;-78
2022/03/01 03:48:36;;;;;;;12.90;7.93;;;;;;;-4.56;92.07;102776.22;5016114;28;20117;-78
2022/03/01 03:51:03;;;;;;;13.20;8.63;;;;;;;-4.53;91.86;102782.53;5008787;28;20045;-78
2022/03/01 03:53:29;;;;;;;13.00;7.80;;;;;;;-4.58;91.17;102782.97;5004749;28;20077;-78
2022/03/01 03:55:56;;;;;;;14.27;8.30;;;;;;;-4.48;90.46;102789.69;5015985;28;20125;-78
2022/03/01 03:58:23;;;;;;;13.10;8.10;;;;;;;-4.51;91.25;102779.16;5006164;28;20038;-79
2022/03/01 04:00:49;;;;;;;14.40;7.93;;;;;;;-4.64;91.75;102785.97;5015097;28;20050;-79
2022/03/01 04:03:17;;;;;;;13.23;7.13;;;;;;;-4.71;91.08;102773.41;5027477;28;20050;-78
2022/03/01 04:05:45;;;;;;;12.77;7.97;;;;;;;-4.69;91.29;102769.28;4984495;28;20109;-79
2022/03/01 04:08:13;;;;;;;10.77;7.07;;;;;;;-4.56;90.79;102771.97;5002072;28;20044;-78
2022/03/01 04:10:40;;;;;;;14.27;8.03;;;;;;;-4.65;91.23;102771.28;4985302;28;20046;-78
2022/03/01 04:13:07;;;;;;;18.23;8.97;;;;;;;-4.68;91.25;102759.88;4975857;28;20049;-78
2022/03/01 04:15:34;;;;;;;14.07;7.47;;;;;;;-4.70;90.51;102767.50;5014781;28;20046;-78
2022/03/01 04:18:01;;;;;;;13.57;8.13;;;;;;;-4.67;91.49;102765.13;4996982;28;20042;-78
2022/03/01 04:20:27;;;;;;;13.73;7.70;;;;;;;-4.68;91.09;102765.91;5022810;28;20069;-78
2022/03/01 04:22:54;;;;;;;14.97;7.77;;;;;;;-4.62;90.80;102755.16;5000617;28;20035;-78
2022/03/01 04:25:21;;;;;;;13.00;7.67;;;;;;;-4.66;90.16;102760.88;4998410;28;20072;-78
2022/03/01 04:27:48;;;;;;;15.77;9.10;;;;;;;-4.64;89.68;102761.88;5017579;28;20064;-79
2022/03/01 04:30:15;;;;;;;13.70;7.93;;;;;;;-4.76;90.34;102760.97;4995514;28;20754;-78
2022/03/01 04:32:43;;;;;;;13.93;7.63;;;;;;;-4.79;91.33;102756.50;4988786;28;20042;-78
2022/03/01 04:35:10;;;;;;;13.20;8.13;;;;;;;-4.75;90.51;102750.75;4987152;28;20051;-78
2022/03/01 04:37:39;;;;;;;12.30;7.53;;;;;;;-4.84;91.76;102753.56;5019077;28;20054;-78
2022/03/01 04:40:08;;;;;;;13.73;8.33;;;;;;;-4.81;90.19;102755.44;5018361;28;20056;-78
2022/03/01 04:42:35;;;;;;;14.50;7.87;;;;;;;-4.85;90.91;102753.44;4986381;28;20489;-78
2022/03/01 04:45:02;;;;;;;12.97;8.10;;;;;;;-4.86;91.11;102751.66;5018353;28;20579;-78
2022/03/01 04:47:29;;;;;;;13.27;7.90;;;;;;;-4.82;90.48;102758.81;5032431;28;20045;-78
2022/03/01 04:49:58;;;;;;;14.87;8.67;;;;;;;-4.89;91.49;102749.72;4986646;28;20053;-78
2022/03/01 04:52:25;;;;;;;12.87;8.50;;;;;;;-4.81;91.67;102748.63;4987853;28;20066;-78
2022/03/01 04:54:52;;;;;;;16.97;8.33;;;;;;;-4.73;91.25;102751.75;4995814;28;20049;-78
2022/03/01 04:57:19;;;;;;;16.53;9.57;;;;;;;-4.69;90.85;102764.13;5018328;28;20048;-79
2022/03/01 04:59:45;;;;;;;14.10;8.13;;;;;;;-4.68;91.09;102752.13;5020509;28;20492;-79
2022/03/01 05:02:13;;;;;;;14.13;7.83;;;;;;;-4.66;90.66;102764.34;5020265;28;20042;-79
2022/03/01 05:04:40;;;;;;;15.30;8.87;;;;;;;-4.74;91.54;102752.56;5020856;28;20069;-79
2022/03/01 05:07:07;;;;;;;16.93;8.97;;;;;;;-4.74;90.78;102751.66;4988093;28;20043;-79
2022/03/01 05:09:34;;;;;;;14.83;8.50;;;;;;;-4.85;91.44;102756.03;5003902;28;20042;-79
2022/03/01 05:12:01;;;;;;;17.00;7.97;;;;;;;-4.79;91.53;102756.50;5008450;28;20045;-79
2022/03/01 05:14:28;;;;;;;16.13;9.70;;;;;;;-4.76;90.34;102763.53;5008710;28;20057;-78
2022/03/01 05:16:54;;;;;;;15.03;8.97;;;;;;;-4.78;90.48;102755.72;5020981;28;20046;-78
2022/03/01 05:19:21;;;;;;;16.10;8.50;;;;;;;-4.82;90.67;102748.50;4989491;28;20054;-79
2022/03/01 05:21:48;;;;;;;19.43;8.93;;;;;;;-4.78;91.61;102749.66;4991911;28;20064;-79
2022/03/01 05:24:14;;;;;;;13.83;8.30;;;;;;;-4.78;91.13;102750.53;5021522;28;20061;-78
2022/03/01 05:26:44;;;;;;;14.07;8.67;;;;;;;-4.82;92.13;102763.97;5023987;28;20041;-79
2022/03/01 05:29:10;;;;;;;12.63;8.20;;;;;;;-4.86;92.28;102754.22;5017292;28;20058;-78
2022/03/01 05:31:37;;;;;;;16.97;8.30;;;;;;;-4.90;92.54;102752.19;5003616;28;20735;-79
2022/03/01 05:34:04;;;;;;;13.33;8.77;;;;;;;-4.93;91.21;102751.97;5003934;28;20042;-78
2022/03/01 05:36:31;;;;;;;15.80;9.40;;;;;;;-4.87;91.34;102762.75;5004231;28;20060;-79
2022/03/01 05:38:58;;;;;;;15.63;8.20;;;;;;;-4.98;92.58;102756.75;5023689;28;20432;-79
2022/03/01 05:41:24;;;;;;;17.60;9.17;;;;;;;-4.94;91.90;102757.91;5008144;28;20054;-78
2022/03/01 05:43:51;;;;;;;15.10;8.77;;;;;;;-4.95;92.21;102761.28;5007477;28;20065;-78
2022/03/01 05:46:18;;;;;;;13.27;8.37;;;;;;;-5.10;92.84;102763.56;5006969;28;20110;-79
2022/03/01 05:48:45;;;;;;;17.23;9.43;;;;;;;-4.99;92.42;102754.06;5005648;28;20404;-79
2022/03/01 05:51:12;;;;;;;16.77;9.50;;;;;;;-5.03;93.07;102747.81;5005254;28;20118;-79
2022/03/01 05:53:39;;;;;;;14.23;9.03;;;;;;;-5.03;93.56;102749.47;5024453;28;20540;-78
2022/03/01 05:56:05;;;;;;;19.27;10.30;;;;;;;-5.03;92.76;102760.69;4994240;28;20069;-79
2022/03/01 05:58:32;;;;;;;14.03;8.50;;;;;;;-5.09;93.92;102757.63;5011278;28;20038;-79
2022/03/01 06:01:01;;;;;;;19.43;10.00;;;;;;;-5.05;92.16;102759.66;5005774;28;20046;-79
2022/03/01 06:03:28;;;;;;;19.37;9.17;;;;;;;-5.00;92.63;102757.44;5006434;28;20069;-78
2022/03/01 06:05:54;;;;;;;14.60;8.23;;;;;;;-5.10;92.33;102755.84;4990648;28;20049;-78
2022/03/01 06:08:21;;;;;;;15.50;9.27;;;;;;;-5.02;92.78;102759.00;5006731;28;20053;-79
2022/03/01 06:10:48;;;;;;;17.27;9.83;;;;;;;-4.91;91.56;102760.72;5007001;28;20050;-78
2022/03/01 06:13:15;;;;;;;17.50;9.67;;;;;;;-5.05;92.03;102769.06;5010629;28;20038;-78
2022/03/01 06:15:41;;;;;;;15.53;8.50;;;;;;;-5.11;93.01;102762.69;5003637;28;20050;-79
2022/03/01 06:18:08;;;;;;;15.90;9.60;;;;;;;-5.07;93.40;102766.38;5005400;28;20042;-78
2022/03/01 06:20:35;;;;;;;18.30;9.03;;;;;;;-4.99;93.18;102760.13;4990846;28;20050;-78
2022/03/01 06:23:02;;;;;;;16.90;9.00;;;;;;;-5.10;92.87;102764.47;5010055;28;20046;-79
2022/03/01 06:25:28;;;;;;;15.80;9.10;;;;;;;-5.02;92.37;102771.91;5000437;28;20057;-78
2022/03/01 06:27:55;;;;;;;16.03;9.20;;;;;;;-5.05;92.81;102771.63;5018631;28;20057;-79
2022/03/01 06:30:22;;;;;;;15.67;9.73;;;;;;;-5.06;93.11;102768.16;5003789;28;20041;-78
2022/03/01 06:32:49;;;;;;;14.77;8.50;;;;;;;-5.09;93.58;102762.78;5022300;28;20120;-79
2022/03/01 06:35:16;;;;;;;17.07;9.27;;;;;;;-5.01;93.24;102755.66;5018137;28;20056;-79
2022/03/01 06:37:48;;;;;;;16.27;9.73;;;;;;;-4.97;93.67;102752.50;5042657;28;20111;-79
2022/03/01 06:40:15;;;;;;;13.80;9.23;;;;;;;-4.88;92.99;102753.19;5026066;28;20060;-79
2022/03/01 06:42:42;;;;;;;20.33;9.30;;;;;;;-4.75;92.96;102753.34;5025194;28;20045;-78
2022/03/01 06:45:09;;;;;;;15.00;9.37;;;;;;;-4.79;93.48;102746.19;5006577;28;20053;-78
2022/03/01 06:47:36;;;;;;;18.93;10.13;;;;;;;-4.76;93.20;102755.81;5002246;28;20034;-79
2022/03/01 06:50:03;;;;;;;17.03;9.30;;;;;;;-4.49;91.64;102747.53;5006229;28;20045;-79
2022/03/01 06:52:31;;;;;;;17.97;9.63;;;;;;;-4.44;92.00;102756.53;5019548;28;20501;-78
2022/03/01 06:54:58;;;;;;;17.17;10.17;;;;;;;-4.35;91.16;102756.28;4998578;28;20060;-78
2022/03/01 06:57:24;;;;;;;17.23;9.10;;;;;;;-4.45;90.64;102759.00;5020983;28;20042;-78
2022/03/01 06:59:53;;;;;;;13.33;9.37;;;;;;;-4.40;89.66;102766.25;5018407;28;20096;-77
2022/03/01 07:02:21;;;;;;;17.40;8.50;;;;;;;-4.37;89.69;102765.59;5020789;28;20038;-79
2022/03/01 07:04:48;;;;;;;14.67;8.77;;;;;;;-4.39;89.26;102756.84;4999659;28;20057;-79
2022/03/01 07:07:15;;;;;;;13.73;8.20;;;;;;;-4.32;88.58;102765.16;5012348;28;20042;-78
2022/03/01 07:09:41;;;;;;;11.93;8.50;;;;;;;-4.30;88.45;102765.25;5020111;28;20046;-79
2022/03/01 07:12:08;;;;;;;19.60;9.17;;;;;;;-4.13;88.24;102754.47;4995285;28;20217;-79
2022/03/01 07:14:35;;;;;;;13.90;9.07;;;;;;;-4.10;88.18;102758.97;5001360;28;20520;-79
2022/03/01 07:17:01;;;;;;;15.20;9.43;;;;;;;-3.93;87.29;102757.63;5016152;28;20050;-79
2022/03/01 07:19:28;;;;;;;15.10;8.67;;;;;;;-3.82;85.74;102761.84;5020251;28;20066;-78
2022/03/01 07:21:55;;;;;;;17.13;9.00;;;;;;;-3.89;86.33;102759.59;5012495;28;20071;-79
2022/03/01 07:24:21;;;;;;;14.43;8.33;;;;;;;-3.85;86.49;102756.47;5016851;28;20497;-79
2022/03/01 07:26:49;;;;;;;11.73;7.27;;;;;;;-3.77;86.18;102755.34;5013413;28;20045;-79
2022/03/01 07:29:15;;;;;;;17.33;8.10;;;;;;;-3.62;84.74;102756.38;5002109;28;20038;-79
2022/03/01 07:31:42;;;;;;;15.03;7.97;;;;;;;-3.44;84.59;102749.94;5006165;28;20196;-78
2022/03/01 07:34:09;;;;;;;18.93;8.43;;;;;;;-3.44;84.12;102747.38;5018036;28;20053;-79
2022/03/01 07:36:36;;;;;;;15.47;8.77;;;;;;;-3.38;83.83;102745.97;5010977;28;20040;-79
2022/03/01 07:39:03;;;;;;;12.63;7.43;;;;;;;-3.17;82.85;102743.19;5010518;28;20116;-79
2022/03/01 07:41:30;;;;;;;13.67;8.07;;;;;;;-2.95;81.35;102739.47;5010487;28;20038;-79
2022/03/01 07:43:57;;;;;;;16.03;8.00;;;;;;;-2.80;79.95;102729.25;5039106;28;20069;-79
2022/03/01 07:46:23;;;;;;;12.13;7.40;;;;;;;-2.78;79.14;102732.81;5028585;28;20056;-79
2022/03/01 07:48:50;;;;;;;16.00;7.83;;;;;;;-2.68;77.96;102733.56;4996548;28;20078;-79
2022/03/01 07:51:17;;;;;;;13.53;7.40;;;;;;;-2.46;77.79;102737.53;5038053;28;20052;-79
2022/03/01 07:53:43;;;;;;;15.77;8.77;;;;;;;-2.33;78.15;102734.97;4981175;28;20042;-79
2022/03/01 07:56:10;;;;;;;13.60;7.83;;;;;;;-2.20;77.14;102739.25;5026454;28;20041;-79
2022/03/01 07:58:37;;;;;;;12.50;7.47;;;;;;;-1.93;75.53;102733.25;5019108;28;20046;-79
2022/03/01 08:01:03;;;;;;;14.07;8.17;;;;;;;-1.78;74.97;102729.00;4990061;28;20057;-80
2022/03/01 08:03:30;;;;;;;12.37;7.37;;;;;;;-1.66;73.50;102730.59;4975413;28;20042;-79
2022/03/01 08:05:57;;;;;;;12.00;7.77;;;;;;;-1.66;73.59;102735.78;4990188;28;20289;-79
2022/03/01 08:08:24;;;;;;;22.33;7.97;;;;;;;-1.48;74.04;102719.66;5022381;28;20382;-80
2022/03/01 08:10:52;;;;;;;12.93;7.97;;;;;;;-1.31;72.42;102725.88;5008931;28;20104;-80
2022/03/01 08:13:39;;;;;;;16.17;7.30;;;;;;;-1.30;72.53;102730.25;4979060;28;20100;-79
2022/03/01 08:16:05;;;;;;;13.77;6.90;;;;;;;-1.10;70.98;102728.84;4974057;28;20046;-80
2022/03/01 08:18:32;;;;;;;13.10;8.20;;;;;;;-1.04;70.97;102720.53;4958354;28;20129;-80
2022/03/01 08:20:59;;;;;;;10.43;7.03;;;;;;;-0.88;71.81;102718.06;4965947;28;20116;-80
2022/03/01 08:23:26;;;;;;;14.93;7.57;;;;;;;-0.82;69.57;102714.94;4957862;28;20042;-81
2022/03/01 08:25:56;;;;;;;12.43;8.13;;;;;;;-0.70;69.75;102711.34;4983174;28;20060;-81
2022/03/01 08:28:23;;;;;;;11.57;6.87;;;;;;;-0.60;69.88;102712.75;4985235;28;20039;-79
2022/03/01 08:30:51;;;;;;;12.00;7.70;;;;;;;-0.59;70.35;102709.34;4993912;28;20038;-81
2022/03/01 08:33:20;;;;;;;11.53;7.13;;;;;;;-0.45;68.71;102715.34;4992629;28;20054;-80
2022/03/01 08:35:46;;;;;;;15.37;7.43;;;;;;;-0.45;68.68;102715.34;5008092;28;20078;-80
2022/03/01 08:38:13;;;;;;;12.23;6.57;;;;;;;-0.35;69.03;102715.06;5007059;28;20052;-79
2022/03/01 08:40:40;;;;;;;11.30;6.43;;;;;;;-0.22;68.13;102712.34;4991778;28;20540;-80
2022/03/01 08:43:08;;;;;;;12.43;7.33;;;;;;;-0.09;67.99;102704.41;4994532;28;20121;-80
2022/03/01 08:45:35;;;;;;;8.57;6.93;;;;;;;0.06;64.33;102709.56;5006263;28;20039;-80
2022/03/01 08:48:03;;;;;;;14.20;7.27;;;;;;;0.01;65.35;102707.56;5010237;28;20084;-79
2022/03/01 08:50:30;;;;;;;11.10;7.10;;;;;;;0.13;63.38;102710.81;5017454;28;20099;-78
2022/03/01 08:53:10;;;;;;;13.07;6.73;;;;;;;0.15;65.71;102703.97;4995901;28;20129;-79
2022/03/01 08:55:37;;;;;;;10.13;7.43;;;;;;;0.30;64.35;102709.13;4981819;28;20137;-79
2022/03/01 08:58:04;;;;;;;11.90;6.37;;;;;;;0.36;63.74;102699.97;4981506;28;20550;-79
2022/03/01 09:00:31;;;;;;;11.97;7.43;;;;;;;0.30;64.46;102704.81;5010956;28;20129;-79
2022/03/01 09:02:59;;;;;;;12.37;6.67;;;;;;;0.34;66.04;102690.25;4992109;28;20042;-79
2022/03/01 09:05:26;;;;;;;8.67;6.10;;;;;;;0.41;64.18;102687.19;4981961;28;20042;-79
2022/03/01 09:07:53;;;;;;;11.63;7.20;;;;;;;0.55;64.25;102694.03;5007023;28;20382;-79
2022/03/01 09:10:21;;;;;;;12.70;7.50;;;;;;;0.82;64.74;102681.56;5010779;28;20060;-79
2022/03/01 09:12:50;;;;;;;11.80;6.50;;;;;;;0.94;62.76;102683.91;4977411;28;20178;-79
2022/03/01 09:15:18;;;;;;;9.87;5.80;;;;;;;1.18;60.45;102684.22;4981470;28;20043;-79
2022/03/01 09:17:45;;;;;;;10.67;5.93;;;;;;;1.24;61.57;102676.72;5013014;28;20504;-80
2022/03/01 09:20:12;;;;;;;13.20;7.63;;;;;;;1.52;58.83;102672.09;4997315;28;20053;-81
2022/03/01 09:22:39;;;;;;;11.10;7.23;;;;;;;1.76;58.62;102659.31;4978815;28;20217;-82
2022/03/01 09:25:06;;;;;;;9.43;6.00;;;;;;;1.89;59.43;102668.63;5008267;28;20097;-83
2022/03/01 09:27:33;;;;;;;8.80;5.80;;;;;;;2.28;59.85;102661.75;4991533;28;20136;-82
2022/03/01 09:30:00;;;;;;;9.77;6.20;;;;;;;2.42;58.73;102659.75;4979956;28;20124;-83
2022/03/01 09:32:27;;;;;;;13.83;6.73;;;;;;;2.76;55.42;102662.13;5011046;28;20092;-83
2022/03/01 09:34:55;;;;;;;10.70;6.50;;;;;;;2.87;53.46;102650.44;5021610;28;20112;-83
2022/03/01 09:37:22;;;;;;;11.67;6.53;;;;;;;3.09;54.80;102649.59;4993513;28;20042;-84
2022/03/01 09:39:49;;;;;;;9.37;6.27;;;;;;;3.29;54.22;102645.22;4977630;28;20532;-83
2022/03/01 09:42:16;;;;;;;12.80;7.47;;;;;;;3.43;53.48;102633.59;4975277;28;20043;-82
2022/03/01 09:44:44;;;;;;;8.93;6.60;;;;;;;3.66;49.88;102629.28;4989719;28;20046;-84
2022/03/01 09:47:11;;;;;;;11.73;6.63;;;;;;;3.82;54.01;102623.81;4984798;28;20666;-83
2022/03/01 09:49:37;;;;;;;11.93;6.30;;;;;;;4.09;51.20;102620.47;4993733;28;20053;-83
2022/03/01 09:52:11;;;;;;;12.77;6.20;;;;;;;4.31;49.30;102616.94;4996102;28;20152;-82
2022/03/01 09:54:38;;;;;;;10.73;6.43;;;;;;;4.42;48.54;102607.72;4990962;28;20121;-83
2022/03/01 09:57:05;;;;;;;10.77;6.13;;;;;;;4.58;47.95;102604.81;5019520;28;20056;-83
2022/03/01 09:59:32;;;;;;;11.30;6.80;;;;;;;4.74;46.43;102611.50;4983466;28;20092;-82
2022/03/01 10:01:59;;;;;;;9.03;5.40;;;;;;;4.89;47.56;102598.94;5007722;28;20575;-82
2022/03/01 10:04:26;;;;;;;11.47;5.93;;;;;;;5.07;47.21;102602.16;4960183;28;20490;-82
2022/03/01 10:06:52;;;;;;;9.53;5.83;;;;;;;5.10;48.01;102606.59;4975951;28;20058;-82
2022/03/01 10:09:23;;;;;;;13.40;6.13;;;;;;;5.31;46.87;102602.06;4961533;28;20470;-82
2022/03/01 10:11:51;;;;;;;14.60;6.27;;;;;;;5.37;45.20;102602.22;4979446;28;20069;-82
2022/03/01 10:14:28;;;;;;;9.43;6.77;;;;;;;5.50;44.40;102594.78;4992428;28;20050;-82
2022/03/01 10:16:56;;;;;;;10.97;5.77;;;;;;;5.53;43.74;102587.00;4967232;28;20133;-82
2022/03/01 10:19:23;;;;;;;11.43;6.50;;;;;;;5.64;44.21;102586.50;4977261;28;20092;-82
2022/03/01 10:22:01;;;;;;;10.43;6.77;;;;;;;5.72;44.12;102589.34;4990496;28;20556;-82
2022/03/01 10:24:28;;;;;;;8.43;5.97;;;;;;;5.83;45.36;102577.44;4992035;28;20052;-82
2022/03/01 10:26:57;;;;;;;9.73;6.07;;;;;;;6.08;44.52;102584.34;5006165;28;20050;-82
2022/03/01 10:29:47;;;;;;;9.43;5.45;;;;;;;6.07;44.59;102577.31;4975860;28;20066;-82
2022/03/01 10:32:14;;;;;;;15.33;9.57;;;;;;;6.20;43.72;102574.16;4988786;28;20077;-81
2022/03/01 10:35:03;;;;;;;10.33;7.73;;;;;;;6.40;43.48;102572.13;4989943;28;20134;-82
2022/03/01 10:37:32;;;;;;;10.93;7.17;;;;;;;6.61;45.01;102576.16;4992895;28;20050;-81
2022/03/01 10:40:09;;;;;;;9.57;6.47;;;;;;;6.66;41.39;102572.81;5023246;28;20413;-82
2022/03/01 10:42:37;;;;;;;10.03;6.33;;;;;;;6.65;41.13;102563.16;4969390;28;20046;-83
2022/03/01 10:45:05;;;;;;;8.63;5.70;;;;;;;6.64;41.27;102558.75;4991810;28;20042;-82
2022/03/01 10:47:32;;;;;;;12.70;6.23;;;;;;;6.79;42.82;102560.84;4993192;28;20783;-82
2022/03/01 10:50:01;;;;;;;9.90;5.73;;;;;;;6.95;41.87;102552.50;4988124;28;20829;-82
2022/03/01 10:52:35;;;;;;;9.67;6.50;;;;;;;7.05;40.63;102549.25;5000304;28;20038;-82
2022/03/01 10:55:03;;;;;;;10.37;6.93;;;;;;;7.09;41.68;102544.97;4995312;28;20043;-82
2022/03/01 10:57:31;;;;;;;41.67;25.07;;;;;;;7.11;39.15;102543.25;4990756;28;20045;-82
2022/03/01 10:59:57;;;;;;;49.43;29.10;;;;;;;6.93;39.28;102542.81;4992535;28;20416;-83
2022/03/01 11:02:24;;;;;;;11.67;6.67;;;;;;;6.91;39.19;102536.66;4991899;28;20045;-83
2022/03/01 11:04:52;;;;;;;8.80;5.97;;;;;;;7.06;41.81;102539.63;4995429;28;20048;-83
2022/03/01 11:07:19;;;;;;;9.70;6.00;;;;;;;6.90;39.54;102541.00;4995101;28;20060;-82
2022/03/01 11:09:49;;;;;;;8.67;5.77;;;;;;;6.99;39.79;102537.72;4988887;28;20084;-84
2022/03/01 11:12:21;;;;;;;10.77;5.87;;;;;;;7.11;40.89;102521.34;4988757;28;20563;-83
2022/03/01 11:15:23;;;;;;;8.53;5.67;;;;;;;7.14;38.76;102511.78;5018254;28;20049;-84
2022/03/01 11:18:00;;;;;;;11.83;5.90;;;;;;;7.16;40.56;102517.97;4995776;28;20068;-83
2022/03/01 11:20:32;;;;;;;9.40;5.57;;;;;;;7.39;39.35;102507.09;4999660;28;20046;-85